createdAt,value
2023-03-14T00:00:56.692Z,3.39
2023-03-14T00:03:23.739Z,3.36
2023-03-14T00:05:50.437Z,3.38
2023-03-14T00:08:17.407Z,3.36
2023-03-14T00:10:44.044Z,3.32
2023-03-14T00:13:10.691Z,3.30
2023-03-14T00:15:37.386Z,3.30
2023-03-14T00:18:04.097Z,3.29
2023-03-14T00:20:30.711Z,3.27
2023-03-14T00:22:57.323Z,3.23
2023-03-14T00:25:23.907Z,3.19
2023-03-14T00:27:52.917Z,3.18
2023-03-14T00:30:19.838Z,3.22
2023-03-14T00:32:46.487Z,3.18
2023-03-14T00:35:13.106Z,3.16
2023-03-14T00:37:39.804Z,3.15
2023-03-14T00:40:08.339Z,3.15
2023-03-14T00:42:35.803Z,3.13
2023-03-14T00:45:02.517Z,3.11
2023-03-14T00:47:29.193Z,3.10
2023-03-14T00:49:55.878Z,3.16
2023-03-14T00:52:22.480Z,3.22
2023-03-14T00:54:49.074Z,3.30
2023-03-14T00:57:15.710Z,3.35
2023-03-14T00:59:42.318Z,3.40
2023-03-14T01:02:08.979Z,3.38
2023-03-14T01:04:35.816Z,3.40
2023-03-14T01:07:02.492Z,3.39
2023-03-14T01:09:29.226Z,3.42
2023-03-14T01:11:55.814Z,3.46
2023-03-14T01:14:22.570Z,3.44
2023-03-14T01:16:49.211Z,3.47
2023-03-14T01:19:15.830Z,3.47
2023-03-14T01:21:42.583Z,3.51
2023-03-14T01:24:12.678Z,3.53
2023-03-14T01:26:39.310Z,3.54
2023-03-14T01:29:05.902Z,3.58
2023-03-14T01:31:32.604Z,3.55
2023-03-14T01:33:59.349Z,3.54
2023-03-14T01:36:25.953Z,3.51
2023-03-14T01:38:52.724Z,3.51
2023-03-14T01:41:22.680Z,3.53
2023-03-14T01:43:50.204Z,3.51
2023-03-14T01:46:22.492Z,3.43
2023-03-14T01:48:55.919Z,3.40
2023-03-14T01:51:25.717Z,3.33
2023-03-14T01:53:55.889Z,3.31
2023-03-14T01:56:23.695Z,3.26
2023-03-14T01:58:53.263Z,3.23
2023-03-14T02:01:22.421Z,3.17
2023-03-14T02:03:55.984Z,3.10
2023-03-14T02:06:30.142Z,3.03
2023-03-14T02:08:57.352Z,2.95
2023-03-14T02:11:29.603Z,2.93
2023-03-14T02:13:58.719Z,2.91
2023-03-14T02:16:25.727Z,2.84
2023-03-14T02:18:52.624Z,2.82
2023-03-14T02:22:03.629Z,2.77
2023-03-14T02:24:48.050Z,2.74
2023-03-14T02:27:17.174Z,2.70
2023-03-14T02:29:57.460Z,2.74
2023-03-14T02:32:26.012Z,2.73
2023-03-14T02:35:01.341Z,2.71
2023-03-14T02:37:47.057Z,2.71
2023-03-14T02:40:13.755Z,2.72
2023-03-14T02:42:40.495Z,2.70
2023-03-14T02:45:10.034Z,2.65
2023-03-14T02:47:42.518Z,2.65
2023-03-14T02:50:18.810Z,2.68
2023-03-14T02:52:45.507Z,2.76
2023-03-14T02:55:12.109Z,2.76
2023-03-14T02:57:38.702Z,2.84
2023-03-14T03:00:06.328Z,2.88
2023-03-14T03:02:33.541Z,2.93
2023-03-14T03:05:00.194Z,2.93
2023-03-14T03:07:26.844Z,2.96
2023-03-14T03:09:53.451Z,2.98
2023-03-14T03:12:20.050Z,2.99
2023-03-14T03:14:46.700Z,2.97
2023-03-14T03:17:13.320Z,2.95
2023-03-14T03:19:40.006Z,2.92
2023-03-14T03:22:06.718Z,2.90
2023-03-14T03:24:33.386Z,2.92
2023-03-14T03:27:00.025Z,2.96
2023-03-14T03:29:26.627Z,2.99
2023-03-14T03:31:54.087Z,2.95
2023-03-14T03:34:20.856Z,2.95
2023-03-14T03:36:47.475Z,2.96
2023-03-14T03:39:14.109Z,2.95
2023-03-14T03:41:40.713Z,2.99
2023-03-14T03:44:07.453Z,2.97
2023-03-14T03:46:34.075Z,2.94
2023-03-14T03:49:01.370Z,2.88
2023-03-14T03:51:28.334Z,2.85
2023-03-14T03:53:55.006Z,2.85
2023-03-14T03:56:21.741Z,2.81
2023-03-14T03:58:48.356Z,2.75
2023-03-14T04:01:15.074Z,2.73
2023-03-14T04:03:41.898Z,2.73
2023-03-14T04:06:12.077Z,2.72
2023-03-14T04:08:40.079Z,2.70
2023-03-14T04:11:06.740Z,2.69
2023-03-14T04:13:33.718Z,2.69
2023-03-14T04:16:00.437Z,2.68
2023-03-14T04:18:27.541Z,2.65
2023-03-14T04:20:55.786Z,2.61
2023-03-14T04:23:25.236Z,2.59
2023-03-14T04:25:53.082Z,2.58
2023-03-14T04:28:20.079Z,2.56
2023-03-14T04:30:46.813Z,2.51
2023-03-14T04:33:18.262Z,2.52
2023-03-14T04:35:46.124Z,2.46
2023-03-14T04:38:13.359Z,2.42
2023-03-14T04:40:43.305Z,2.39
2023-03-14T04:43:12.201Z,2.33
2023-03-14T04:45:42.660Z,2.30
2023-03-14T04:48:09.369Z,2.29
2023-03-14T04:50:36.143Z,2.27
2023-03-14T04:53:02.835Z,2.26
2023-03-14T04:55:29.440Z,2.28
2023-03-14T04:57:56.045Z,2.27
2023-03-14T05:00:23.102Z,2.24
2023-03-14T05:02:49.868Z,2.26
2023-03-14T05:05:16.579Z,2.26
2023-03-14T05:07:44.332Z,2.27
2023-03-14T05:10:11.517Z,2.27
2023-03-14T05:12:38.199Z,2.24
2023-03-14T05:15:05.605Z,2.22
2023-03-14T05:17:34.106Z,2.15
2023-03-14T05:20:00.743Z,2.10
2023-03-14T05:22:27.412Z,2.07
2023-03-14T05:24:57.751Z,2.02
2023-03-14T05:27:24.475Z,1.98
2023-03-14T05:29:51.130Z,1.94
2023-03-14T05:32:17.763Z,1.91
2023-03-14T05:34:44.397Z,1.88
2023-03-14T05:37:11.008Z,1.85
2023-03-14T05:39:37.596Z,1.82
2023-03-14T05:42:04.301Z,1.79
2023-03-14T05:44:32.093Z,1.76
2023-03-14T05:46:58.681Z,1.75
2023-03-14T05:49:25.448Z,1.74
2023-03-14T05:51:52.326Z,1.74
2023-03-14T05:54:18.945Z,1.70
2023-03-14T05:56:45.552Z,1.68
2023-03-14T05:59:13.382Z,1.65
2023-03-14T06:01:40.125Z,1.59
2023-03-14T06:04:06.809Z,1.54
2023-03-14T06:06:33.491Z,1.52
2023-03-14T06:09:00.179Z,1.49
2023-03-14T06:11:26.977Z,1.48
2023-03-14T06:13:53.654Z,1.47
2023-03-14T06:16:21.475Z,1.43
2023-03-14T06:18:50.010Z,1.42
2023-03-14T06:21:18.429Z,1.44
2023-03-14T06:23:46.482Z,1.42
2023-03-14T06:26:13.274Z,1.40
2023-03-14T06:28:40.122Z,1.36
2023-03-14T06:31:06.947Z,1.29
2023-03-14T06:33:33.600Z,1.30
2023-03-14T06:36:01.294Z,1.24
2023-03-14T06:38:27.900Z,1.20
2023-03-14T06:40:54.577Z,1.18
2023-03-14T06:43:22.253Z,1.19
2023-03-14T06:45:48.935Z,1.18
2023-03-14T06:48:15.646Z,1.14
2023-03-14T06:50:43.040Z,1.13
2023-03-14T06:53:09.901Z,1.13
2023-03-14T06:55:36.501Z,1.13
2023-03-14T06:58:03.114Z,1.12
2023-03-14T07:00:29.762Z,1.10
2023-03-14T07:02:56.415Z,1.09
2023-03-14T07:05:23.070Z,1.09
2023-03-14T07:07:49.667Z,1.08
2023-03-14T07:10:16.626Z,1.08
2023-03-14T07:12:43.193Z,1.05
2023-03-14T07:15:18.185Z,1.04
2023-03-14T07:17:45.661Z,1.07
2023-03-14T07:20:12.316Z,1.09
2023-03-14T07:22:38.912Z,1.10
2023-03-14T07:25:06.431Z,1.11
2023-03-14T07:27:33.063Z,1.12
2023-03-14T07:29:59.694Z,1.14
2023-03-14T07:32:26.685Z,1.15
2023-03-14T07:34:53.319Z,1.18
2023-03-14T07:37:19.997Z,1.21
2023-03-14T07:39:46.663Z,1.20
2023-03-14T07:42:13.311Z,1.20
2023-03-14T07:44:40.146Z,1.22
2023-03-14T07:47:07.004Z,1.23
2023-03-14T07:49:33.722Z,1.23
2023-03-14T07:52:00.393Z,1.26
2023-03-14T07:54:27.452Z,1.33
2023-03-14T07:56:54.116Z,1.38
2023-03-14T07:59:20.926Z,1.48
2023-03-14T08:01:47.565Z,1.55
2023-03-14T08:04:14.405Z,1.62
2023-03-14T08:06:41.278Z,1.74
2023-03-14T08:09:07.966Z,1.82
2023-03-14T08:11:34.661Z,1.91
2023-03-14T08:14:01.318Z,1.98
2023-03-14T08:16:27.971Z,2.02
2023-03-14T08:18:54.620Z,2.05
2023-03-14T08:21:21.335Z,2.07
2023-03-14T08:23:48.060Z,2.07
2023-03-14T08:26:14.649Z,2.10
2023-03-14T08:28:41.386Z,2.11
2023-03-14T08:31:08.223Z,2.11
2023-03-14T08:33:35.139Z,2.13
2023-03-14T08:36:02.320Z,2.13
2023-03-14T08:38:29.457Z,2.16
2023-03-14T08:41:01.145Z,2.17
2023-03-14T08:43:29.034Z,2.14
2023-03-14T08:45:59.150Z,2.12
2023-03-14T08:48:25.812Z,2.13
2023-03-14T08:50:52.524Z,2.16
2023-03-14T08:53:19.743Z,2.21
2023-03-14T08:55:46.356Z,2.25
2023-03-14T08:58:13.526Z,2.30
2023-03-14T09:00:40.277Z,2.33
2023-03-14T09:03:06.969Z,2.37
2023-03-14T09:05:35.380Z,2.45
2023-03-14T09:08:02.397Z,2.51
2023-03-14T09:10:29.085Z,2.54
2023-03-14T09:12:55.868Z,2.58
2023-03-14T09:15:23.213Z,2.62
2023-03-14T09:17:49.873Z,2.73
2023-03-14T09:20:16.931Z,2.84
2023-03-14T09:22:43.871Z,2.91
2023-03-14T09:25:11.626Z,3.02
2023-03-14T09:27:38.310Z,3.12
2023-03-14T09:30:05.561Z,3.20
2023-03-14T09:32:33.020Z,3.30
2023-03-14T09:35:00.184Z,3.46
2023-03-14T09:37:26.831Z,3.61
2023-03-14T09:39:53.615Z,3.75
2023-03-14T09:42:24.244Z,4.02
2023-03-14T09:44:57.885Z,4.35
2023-03-14T09:47:26.106Z,4.74
2023-03-14T09:49:54.060Z,5.16
2023-03-14T09:52:24.662Z,5.66
2023-03-14T09:55:06.760Z,6.23
2023-03-14T09:57:36.500Z,6.69
2023-03-14T10:00:15.123Z,7.25
2023-03-14T10:02:47.081Z,7.90
2023-03-14T10:05:20.140Z,8.51
2023-03-14T10:08:00.295Z,9.18
2023-03-14T10:10:28.149Z,9.75
2023-03-14T10:13:14.790Z,10.23
2023-03-14T10:15:41.686Z,10.76
2023-03-14T10:18:16.500Z,11.15
2023-03-14T10:20:45.861Z,11.59
2023-03-14T10:23:12.399Z,11.58
2023-03-14T10:25:42.694Z,11.65
2023-03-14T10:28:25.120Z,10.81
2023-03-14T10:30:51.670Z,9.77
2023-03-14T10:33:18.219Z,8.80
2023-03-14T10:35:45.732Z,9.04
2023-03-14T10:38:17.886Z,9.31
2023-03-14T10:40:53.828Z,9.37
2023-03-14T10:43:27.809Z,8.91
2023-03-14T10:46:00.210Z,8.32
2023-03-14T10:48:36.129Z,8.02
2023-03-14T10:51:18.768Z,7.73
2023-03-14T10:53:56.822Z,7.32
2023-03-14T10:56:25.513Z,7.12
2023-03-14T10:58:56.864Z,7.00
2023-03-14T11:02:00.672Z,7.07
2023-03-14T11:04:27.262Z,7.31
2023-03-14T11:06:57.097Z,7.92
2023-03-14T11:10:04.793Z,8.91
2023-03-14T11:12:43.051Z,9.24
2023-03-14T11:15:25.026Z,9.21
2023-03-14T11:18:22.477Z,9.05
2023-03-14T11:21:04.533Z,8.70
2023-03-14T11:23:47.825Z,8.24
2023-03-14T11:26:26.502Z,7.94
2023-03-14T11:28:59.429Z,7.72
2023-03-14T11:31:34.944Z,7.43
2023-03-14T11:34:19.769Z,7.21
2023-03-14T11:36:49.334Z,7.08
2023-03-14T11:39:18.965Z,6.98
2023-03-14T11:41:48.766Z,6.95
2023-03-14T11:44:25.499Z,6.99
2023-03-14T11:47:00.550Z,6.96
2023-03-14T11:49:47.203Z,6.90
2023-03-14T11:52:25.896Z,6.85
2023-03-14T11:55:38.146Z,6.84
2023-03-14T11:58:14.139Z,6.86
2023-03-14T12:00:41.881Z,6.90
2023-03-14T12:03:08.509Z,6.90
2023-03-14T12:05:48.793Z,6.92
2023-03-14T12:08:33.836Z,6.89
2023-03-14T12:11:11.308Z,6.85
2023-03-14T12:13:40.675Z,6.88
2023-03-14T12:16:25.826Z,6.86
2023-03-14T12:18:54.396Z,6.79
2023-03-14T12:21:21.785Z,6.74
2023-03-14T12:23:57.732Z,6.78
2023-03-14T12:26:26.899Z,6.80
2023-03-14T12:29:13.155Z,6.80
2023-03-14T12:31:44.629Z,6.81
2023-03-14T12:34:11.309Z,6.78
2023-03-14T12:36:54.309Z,6.73
2023-03-14T12:39:38.846Z,6.63
2023-03-14T12:42:44.592Z,6.77
2023-03-14T12:45:14.770Z,6.92
2023-03-14T12:47:47.073Z,7.13
2023-03-14T12:50:20.436Z,7.32
2023-03-14T12:53:05.474Z,7.40
2023-03-14T12:55:40.741Z,7.33
2023-03-14T12:58:15.051Z,7.25
2023-03-14T13:00:42.817Z,7.12
2023-03-14T13:03:29.295Z,7.15
2023-03-14T13:06:02.966Z,7.20
2023-03-14T13:08:40.790Z,7.11
2023-03-14T13:11:30.256Z,7.08
2023-03-14T13:14:00.143Z,7.07
2023-03-14T13:16:26.882Z,6.96
2023-03-14T13:19:13.247Z,6.84
2023-03-14T13:21:39.988Z,6.80
2023-03-14T13:24:26.138Z,6.73
2023-03-14T13:26:57.365Z,6.63
2023-03-14T13:29:29.820Z,6.47
2023-03-14T13:32:18.195Z,6.34
2023-03-14T13:34:44.878Z,6.26
2023-03-14T13:37:18.337Z,6.47
2023-03-14T13:39:51.454Z,6.68
2023-03-14T13:42:19.608Z,6.80
2023-03-14T13:44:48.245Z,6.95
2023-03-14T13:47:18.211Z,7.14
2023-03-14T13:49:46.189Z,7.34
2023-03-14T13:52:36.207Z,7.47
2023-03-14T13:55:06.132Z,7.53
2023-03-14T13:57:55.552Z,7.60
2023-03-14T14:00:28.268Z,7.64
2023-03-14T14:02:57.320Z,7.71
2023-03-14T14:05:29.002Z,7.86
2023-03-14T14:07:56.483Z,7.91
2023-03-14T14:10:23.680Z,7.94
2023-03-14T14:12:58.614Z,7.89
2023-03-14T14:15:29.589Z,7.98
2023-03-14T14:18:06.086Z,8.28
2023-03-14T14:20:38.954Z,8.28
2023-03-14T14:23:10.871Z,8.62
2023-03-14T14:25:37.991Z,8.75
2023-03-14T14:28:21.916Z,8.61
2023-03-14T14:31:26.640Z,8.43
2023-03-14T14:33:56.906Z,8.05
2023-03-14T14:36:25.157Z,7.78
2023-03-14T14:38:53.790Z,7.57
2023-03-14T14:41:21.549Z,7.33
2023-03-14T14:43:48.581Z,7.17
2023-03-14T14:46:19.923Z,6.98
2023-03-14T14:48:50.597Z,6.81
2023-03-14T14:51:27.763Z,6.59
2023-03-14T14:54:04.268Z,6.54
2023-03-14T14:56:31.126Z,6.47
2023-03-14T14:59:03.998Z,6.69
2023-03-14T15:01:43.297Z,6.79
2023-03-14T15:04:15.947Z,6.53
2023-03-14T15:06:49.242Z,6.63
2023-03-14T15:09:18.221Z,6.70
2023-03-14T15:11:45.420Z,6.69
2023-03-14T15:14:12.242Z,6.59
2023-03-14T15:16:40.234Z,6.60
2023-03-14T15:19:24.216Z,6.35
2023-03-14T15:21:53.332Z,6.19
2023-03-14T15:24:20.531Z,6.10
2023-03-14T15:26:47.299Z,5.91
2023-03-14T15:29:14.012Z,5.78
2023-03-14T15:31:44.137Z,5.75
2023-03-14T15:34:11.249Z,5.73
2023-03-14T15:36:39.269Z,5.72
2023-03-14T15:39:07.880Z,5.70
2023-03-14T15:41:35.166Z,5.69
2023-03-14T15:44:02.271Z,5.71
2023-03-14T15:46:31.425Z,5.67
2023-03-14T15:48:58.225Z,5.68
2023-03-14T15:51:24.943Z,5.75
2023-03-14T15:53:52.817Z,5.93
2023-03-14T15:56:21.283Z,6.22
2023-03-14T15:58:48.089Z,6.57
2023-03-14T16:01:17.166Z,6.79
2023-03-14T16:03:46.091Z,6.92
2023-03-14T16:06:13.944Z,6.85
2023-03-14T16:08:40.786Z,6.68
2023-03-14T16:11:07.511Z,6.62
2023-03-14T16:13:34.177Z,6.75
2023-03-14T16:16:03.105Z,6.93
2023-03-14T16:18:32.580Z,7.07
2023-03-14T16:21:01.791Z,7.18
2023-03-14T16:23:29.515Z,7.26
2023-03-14T16:25:56.780Z,7.33
2023-03-14T16:28:23.841Z,7.38
2023-03-14T16:30:50.649Z,7.38
2023-03-14T16:33:18.022Z,7.46
2023-03-14T16:35:57.723Z,7.46
2023-03-14T16:38:25.121Z,7.42
2023-03-14T16:41:03.913Z,7.46
2023-03-14T16:43:30.902Z,7.53
2023-03-14T16:46:00.030Z,7.50
2023-03-14T16:48:30.437Z,7.49
2023-03-14T16:50:57.834Z,7.50
2023-03-14T16:53:27.595Z,7.59
2023-03-14T16:55:54.244Z,7.55
2023-03-14T16:58:21.416Z,7.44
2023-03-14T17:00:48.781Z,7.19
2023-03-14T17:03:17.305Z,6.98
2023-03-14T17:05:49.021Z,6.80
2023-03-14T17:08:18.594Z,6.67
2023-03-14T17:10:45.974Z,6.53
2023-03-14T17:13:13.146Z,6.40
2023-03-14T17:15:40.066Z,6.26
2023-03-14T17:18:07.267Z,6.19
2023-03-14T17:20:34.403Z,6.10
2023-03-14T17:23:01.047Z,5.98
2023-03-14T17:25:27.755Z,5.90
2023-03-14T17:27:54.590Z,5.86
2023-03-14T17:30:21.403Z,5.85
2023-03-14T17:32:48.055Z,5.81
2023-03-14T17:35:14.829Z,5.77
2023-03-14T17:37:42.128Z,5.71
2023-03-14T17:40:09.748Z,5.64
2023-03-14T17:42:36.381Z,5.58
2023-03-14T17:45:03.298Z,5.53
2023-03-14T17:47:30.118Z,5.50
2023-03-14T17:49:56.889Z,5.52
2023-03-14T17:52:24.831Z,5.50
2023-03-14T17:54:51.948Z,5.46
2023-03-14T17:57:18.620Z,5.36
2023-03-14T17:59:45.322Z,5.31
2023-03-14T18:02:15.224Z,5.25
2023-03-14T18:04:42.053Z,5.21
2023-03-14T18:07:09.125Z,5.19
2023-03-14T18:09:35.806Z,5.13
2023-03-14T18:12:08.110Z,5.11
2023-03-14T18:14:36.388Z,5.11
2023-03-14T18:17:04.106Z,5.06
2023-03-14T18:19:31.937Z,5.04
2023-03-14T18:21:58.855Z,5.01
2023-03-14T18:24:26.767Z,4.97
2023-03-14T18:26:54.444Z,4.96
2023-03-14T18:29:21.700Z,4.93
2023-03-14T18:31:48.395Z,4.91
2023-03-14T18:34:15.404Z,4.91
2023-03-14T18:36:42.612Z,4.90
2023-03-14T18:39:10.386Z,4.88
2023-03-14T18:41:37.261Z,4.82
2023-03-14T18:44:04.289Z,4.80
2023-03-14T18:46:31.098Z,4.72
2023-03-14T18:49:03.695Z,4.65
2023-03-14T18:51:32.976Z,4.59
2023-03-14T18:54:10.001Z,4.54
2023-03-14T18:56:39.477Z,4.50
2023-03-14T18:59:07.216Z,4.47
2023-03-14T19:01:34.419Z,4.44
2023-03-14T19:04:02.649Z,4.39
2023-03-14T19:06:33.911Z,4.37
2023-03-14T19:09:01.982Z,4.32
2023-03-14T19:11:28.761Z,4.32
2023-03-14T19:13:56.906Z,4.27
2023-03-14T19:16:24.958Z,4.23
2023-03-14T19:18:55.803Z,4.22
2023-03-14T19:21:31.267Z,4.18
2023-03-14T19:23:58.008Z,4.15
2023-03-14T19:26:24.776Z,4.17
2023-03-14T19:28:55.224Z,4.16
2023-03-14T19:31:22.106Z,4.15
2023-03-14T19:33:49.217Z,4.12
2023-03-14T19:36:21.459Z,4.09
2023-03-14T19:38:49.555Z,4.08
2023-03-14T19:41:16.387Z,4.08
2023-03-14T19:43:43.024Z,4.06
2023-03-14T19:46:09.841Z,4.04
2023-03-14T19:48:37.559Z,4.02
2023-03-14T19:51:04.584Z,4.00
2023-03-14T19:53:31.936Z,3.99
2023-03-14T19:55:58.634Z,3.99
2023-03-14T19:58:25.351Z,3.99
2023-03-14T20:00:52.349Z,3.97
2023-03-14T20:03:19.226Z,3.96
2023-03-14T20:05:47.277Z,3.95
2023-03-14T20:08:14.066Z,3.95
2023-03-14T20:10:41.257Z,3.95
2023-03-14T20:13:19.145Z,3.95
2023-03-14T20:15:47.934Z,3.89
2023-03-14T20:18:14.671Z,3.84
2023-03-14T20:20:41.835Z,3.81
2023-03-14T20:23:10.023Z,3.80
2023-03-14T20:25:37.880Z,3.74
2023-03-14T20:28:05.304Z,3.71
2023-03-14T20:30:33.081Z,3.69
2023-03-14T20:33:04.432Z,3.69
2023-03-14T20:35:31.626Z,3.64
2023-03-14T20:37:58.288Z,3.60
2023-03-14T20:40:29.061Z,3.57
2023-03-14T20:42:57.415Z,3.53
2023-03-14T20:45:24.084Z,3.46
2023-03-14T20:47:50.960Z,3.40
2023-03-14T20:50:17.815Z,3.35
2023-03-14T20:52:45.425Z,3.30
2023-03-14T20:55:13.466Z,3.24
2023-03-14T20:57:41.220Z,3.19
2023-03-14T21:00:08.726Z,3.10
2023-03-14T21:02:35.447Z,3.04
2023-03-14T21:05:02.622Z,3.01
2023-03-14T21:07:32.971Z,2.99
2023-03-14T21:09:59.737Z,2.95
2023-03-14T21:12:27.104Z,2.98
2023-03-14T21:14:56.273Z,2.99
2023-03-14T21:17:23.049Z,3.00
2023-03-14T21:19:49.772Z,3.00
2023-03-14T21:22:18.581Z,3.00
2023-03-14T21:24:46.237Z,2.96
2023-03-14T21:27:13.000Z,2.91
2023-03-14T21:29:39.987Z,2.88
2023-03-14T21:32:08.826Z,2.82
2023-03-14T21:34:35.514Z,2.74
2023-03-14T21:37:02.878Z,2.70
2023-03-14T21:39:30.584Z,2.71
2023-03-14T21:41:57.290Z,2.72
2023-03-14T21:44:24.902Z,2.71
2023-03-14T21:46:51.791Z,2.70
2023-03-14T21:49:18.816Z,2.67
2023-03-14T21:51:48.483Z,2.65
2023-03-14T21:54:16.780Z,2.63
2023-03-14T21:56:44.286Z,2.62
2023-03-14T21:59:11.773Z,2.60
2023-03-14T22:01:39.370Z,2.58
2023-03-14T22:04:06.191Z,2.52
2023-03-14T22:06:35.091Z,2.49
2023-03-14T22:09:03.214Z,2.44
2023-03-14T22:11:29.902Z,2.42
2023-03-14T22:13:57.069Z,2.43
2023-03-14T22:16:23.705Z,2.41
2023-03-14T22:18:50.529Z,2.35
2023-03-14T22:21:17.125Z,2.32
2023-03-14T22:23:43.718Z,2.30
2023-03-14T22:26:10.405Z,2.29
2023-03-14T22:28:36.984Z,2.28
2023-03-14T22:31:04.000Z,2.30
2023-03-14T22:33:31.408Z,2.30
2023-03-14T22:35:58.421Z,2.24
2023-03-14T22:38:25.501Z,2.21
2023-03-14T22:40:52.435Z,2.15
2023-03-14T22:43:19.637Z,2.12
2023-03-14T22:45:46.581Z,2.11
2023-03-14T22:48:13.237Z,2.10
2023-03-14T22:50:40.577Z,2.12
2023-03-14T22:53:07.270Z,2.14
2023-03-14T22:55:34.107Z,2.15
2023-03-14T22:58:00.932Z,2.14
2023-03-14T23:00:28.010Z,2.11
2023-03-14T23:02:54.864Z,2.09
2023-03-14T23:05:22.076Z,2.09
2023-03-14T23:07:48.744Z,2.11
2023-03-14T23:10:16.032Z,2.09
2023-03-14T23:12:45.245Z,2.07
2023-03-14T23:15:15.624Z,2.04
2023-03-14T23:17:43.839Z,2.00
2023-03-14T23:20:11.846Z,1.97
2023-03-14T23:22:38.737Z,1.95
2023-03-14T23:25:08.931Z,1.91
2023-03-14T23:27:36.038Z,1.90
2023-03-14T23:30:03.848Z,1.89
2023-03-14T23:32:31.458Z,1.82
2023-03-14T23:34:58.405Z,1.82
2023-03-14T23:37:25.976Z,1.84
2023-03-14T23:39:52.776Z,1.81
2023-03-14T23:42:19.488Z,1.78
2023-03-14T23:44:46.629Z,1.73
2023-03-14T23:47:13.374Z,1.70
2023-03-14T23:49:40.078Z,1.70
2023-03-14T23:52:06.902Z,1.71
2023-03-14T23:54:33.762Z,1.69
2023-03-14T23:57:04.562Z,1.68
2023-03-14T23:59:33.967Z,1.68
